Time;durP1;ratioP1;P1;durP2;ratioP2;P2;SDS_P1;SDS_P2;PMS_P1;PMS_P2;Temp;Humidity;BMP_temperature;BMP_pressure;BME280_temperature;BME280_humidity;BME280_pressure;Samples;Min_cycle;Max_cycle;Signal;HPM_P1;HPM_P2
2023/07/01 00:00:01;;;;;;;3.50;1.97;;;17.80;99.90;;;;;;5074376;28;20195;-71
2023/07/01 00:02:28;;;;;;;4.67;2.37;;;17.70;99.90;;;;;;5073807;28;20544;-70
2023/07/01 00:04:56;;;;;;;3.17;2.00;;;18.00;99.90;;;;;;5074171;28;20639;-71
2023/07/01 00:07:23;;;;;;;4.03;1.70;;;17.80;99.90;;;;;;5074673;28;20232;-69
2023/07/01 00:09:51;;;;;;;2.33;1.50;;;18.30;99.90;;;;;;5074671;28;20193;-71
2023/07/01 00:12:18;;;;;;;2.17;1.30;;;18.70;99.90;;;;;;5074875;28;20228;-69
2023/07/01 00:14:45;;;;;;;2.80;1.50;;;18.90;99.90;;;;;;5073197;28;21013;-70
2023/07/01 00:17:13;;;;;;;2.80;1.30;;;19.50;99.90;;;;;;5074239;28;20180;-67
2023/07/01 00:19:40;;;;;;;1.63;1.13;;;19.60;99.90;;;;;;5073733;28;20750;-69
2023/07/01 00:22:08;;;;;;;1.93;1.60;;;19.40;99.90;;;;;;5074888;28;20176;-69
2023/07/01 00:24:35;;;;;;;2.33;1.20;;;19.10;99.90;;;;;;5074927;28;20654;-67
2023/07/01 00:27:03;;;;;;;2.33;1.10;;;18.90;99.90;;;;;;5075228;28;20189;-67
2023/07/01 00:29:30;;;;;;;2.77;1.10;;;18.60;99.90;;;;;;5074889;28;20186;-68
2023/07/01 00:31:58;;;;;;;2.00;1.13;;;17.90;99.90;;;;;;5074845;28;20626;-70
2023/07/01 00:34:25;;;;;;;2.57;1.10;;;18.30;99.90;;;;;;5074636;28;20180;-67
2023/07/01 00:36:52;;;;;;;2.23;1.00;;;18.20;99.90;;;;;;5074655;28;20173;-69
2023/07/01 00:39:20;;;;;;;1.50;1.10;;;18.20;99.90;;;;;;5074526;28;20191;-69
2023/07/01 00:41:55;;;;;;;2.50;1.20;;;18.60;99.90;;;;;;5074389;28;20180;-67
2023/07/01 00:44:23;;;;;;;2.23;1.27;;;19.00;99.90;;;;;;5074938;28;20167;-68
2023/07/01 00:46:50;;;;;;;1.47;1.00;;;19.30;99.90;;;;;;5074997;28;20170;-68
2023/07/01 00:49:18;;;;;;;2.23;1.30;;;19.60;99.90;;;;;;5072903;28;20607;-68
2023/07/01 00:51:45;;;;;;;3.10;2.13;;;19.70;98.60;;;;;;5074658;28;20218;-69
2023/07/01 00:54:13;;;;;;;2.93;1.90;;;19.80;97.10;;;;;;5074473;28;20183;-67
2023/07/01 00:56:41;;;;;;;2.73;1.93;;;20.10;98.30;;;;;;5074271;28;20310;-69
2023/07/01 00:59:08;;;;;;;2.10;1.90;;;20.20;97.10;;;;;;5074195;28;20164;-68
2023/07/01 01:01:41;;;;;;;2.53;1.73;;;20.80;96.60;;;;;;5072740;28;20231;-68
2023/07/01 01:04:29;;;;;;;4.47;1.80;;;21.20;91.50;;;;;;5074381;28;20164;-68
2023/07/01 01:07:12;;;;;;;5.43;2.27;;;20.70;91.00;;;;;;5074076;28;20764;-68
2023/07/01 01:10:13;;;;;;;4.03;1.70;;;20.60;91.60;;;;;;5073845;28;20191;-68
2023/07/01 01:12:43;;;;;;;3.63;2.00;;;20.40;93.70;;;;;;5074192;28;20172;-68
2023/07/01 01:15:12;;;;;;;5.80;1.77;;;21.00;93.30;;;;;;5073974;28;20299;-68
2023/07/01 01:17:43;;;;;;;4.40;1.47;;;21.10;90.10;;;;;;5073986;28;20182;-68
2023/07/01 01:20:16;;;;;;;2.53;1.63;;;21.40;91.20;;;;;;5072171;28;20316;-68
2023/07/01 01:22:48;;;;;;;4.97;1.10;;;21.60;91.40;;;;;;5073084;28;20683;-68
2023/07/01 01:25:36;;;;;;;3.27;0.73;;;21.60;88.30;;;;;;5074439;28;20193;-68
2023/07/01 01:28:04;;;;;;;1.77;0.80;;;21.30;90.70;;;;;;5072408;28;20274;-68
2023/07/01 01:30:32;;;;;;;3.27;0.93;;;21.50;90.20;;;;;;5073594;28;20172;-68
2023/07/01 01:33:01;;;;;;;1.00;0.70;;;21.30;91.80;;;;;;5073496;28;20261;-68
2023/07/01 01:35:28;;;;;;;1.20;0.80;;;20.90;94.00;;;;;;5073406;28;20218;-68
2023/07/01 01:38:08;;;;;;;3.23;0.70;;;20.80;92.30;;;;;;5073507;28;20178;-69
2023/07/01 01:41:14;;;;;;;0.83;0.77;;;21.00;93.70;;;;;;5073618;28;20176;-68
2023/07/01 01:43:56;;;;;;;6.93;0.90;;;21.70;91.60;;;;;;5071163;28;20242;-69
2023/07/01 01:46:26;;;;;;;1.93;0.80;;;22.10;89.80;;;;;;5073418;28;20168;-69
2023/07/01 01:48:59;;;;;;;0.70;0.70;;;22.10;89.60;;;;;;5073373;28;20589;-69
2023/07/01 01:51:27;;;;;;;0.87;0.60;;;21.80;90.50;;;;;;5073224;28;20186;-69
2023/07/01 01:53:56;;;;;;;2.07;0.80;;;21.20;91.00;;;;;;5073358;28;20171;-68
2023/07/01 01:56:25;;;;;;;1.93;0.87;;;20.70;93.00;;;;;;5073071;28;20208;-68
2023/07/01 01:58:52;;;;;;;1.17;0.87;;;21.20;93.90;;;;;;5073040;28;20171;-68
2023/07/01 02:01:19;;;;;;;1.70;1.20;;;21.20;92.90;;;;;;5073094;28;20184;-69
2023/07/01 02:03:47;;;;;;;1.90;0.90;;;21.10;93.10;;;;;;5073017;28;20637;-70
2023/07/01 02:06:14;;;;;;;1.43;1.13;;;21.30;92.40;;;;;;5073149;28;20168;-68
2023/07/01 02:08:41;;;;;;;2.10;1.13;;;21.50;93.20;;;;;;5073231;28;20172;-70
2023/07/01 02:11:09;;;;;;;2.23;1.37;;;22.20;93.00;;;;;;5073039;28;20182;-68
2023/07/01 02:13:36;;;;;;;1.23;0.80;;;22.20;91.20;;;;;;5072900;28;20184;-70
2023/07/01 02:16:04;;;;;;;2.40;1.10;;;21.80;90.30;;;;;;5073170;28;20211;-68
2023/07/01 02:18:31;;;;;;;2.13;1.20;;;21.90;91.00;;;;;;5072543;28;20190;-68
2023/07/01 02:20:58;;;;;;;2.77;1.03;;;21.80;90.70;;;;;;5072852;28;20241;-68
2023/07/01 02:23:26;;;;;;;1.10;1.00;;;22.00;91.10;;;;;;5072945;28;20172;-69
2023/07/01 02:25:58;;;;;;;0.83;0.83;;;22.40;91.30;;;;;;5072851;28;20530;-68
2023/07/01 02:28:26;;;;;;;1.10;0.90;;;23.10;89.90;;;;;;5073022;28;20172;-69
2023/07/01 02:30:54;;;;;;;1.27;0.70;;;23.20;81.20;;;;;;5072899;28;20249;-68
2023/07/01 02:33:21;;;;;;;0.63;0.40;;;22.60;76.90;;;;;;5073324;28;20184;-68
2023/07/01 02:35:48;;;;;;;0.33;0.33;;;22.40;79.70;;;;;;5076820;28;20211;-69
2023/07/01 02:38:16;;;;;;;2.40;0.33;;;22.10;79.80;;;;;;5076922;28;20625;-69
2023/07/01 02:40:43;;;;;;;0.23;0.23;;;21.70;76.80;;;;;;5076966;28;20178;-68
2023/07/01 02:43:11;;;;;;;0.30;0.30;;;21.40;79.10;;;;;;5076954;28;20628;-68
2023/07/01 02:45:38;;;;;;;0.37;0.30;;;21.50;75.80;;;;;;5076660;28;20190;-70
2023/07/01 02:48:05;;;;;;;0.20;0.20;;;21.20;72.50;;;;;;5076898;28;20237;-68
2023/07/01 02:50:33;;;;;;;0.20;0.20;;;21.10;69.10;;;;;;5076477;28;20266;-68
2023/07/01 02:53:00;;;;;;;0.73;0.30;;;21.00;68.30;;;;;;5077275;28;20186;-70
2023/07/01 02:55:30;;;;;;;0.30;0.30;;;20.60;70.50;;;;;;5076595;28;20663;-69
2023/07/01 02:57:58;;;;;;;2.10;0.30;;;20.70;71.60;;;;;;5076640;28;20184;-69
2023/07/01 03:00:25;;;;;;;0.30;0.30;;;20.80;71.80;;;;;;5076506;28;20187;-68
2023/07/01 03:02:52;;;;;;;0.30;0.30;;;20.90;74.50;;;;;;5076358;28;20176;-68
2023/07/01 03:05:21;;;;;;;0.30;0.30;;;20.80;78.30;;;;;;5076301;28;20203;-69
2023/07/01 03:07:52;;;;;;;0.30;0.30;;;20.80;74.10;;;;;;5076350;28;20254;-68
2023/07/01 03:10:19;;;;;;;0.30;0.30;;;20.50;76.00;;;;;;5076078;28;20228;-69
2023/07/01 03:12:47;;;;;;;0.30;0.30;;;20.50;77.50;;;;;;5076309;28;20168;-69
2023/07/01 03:15:14;;;;;;;0.30;0.30;;;20.60;77.30;;;;;;5076017;28;20214;-67
2023/07/01 03:17:42;;;;;;;0.40;0.40;;;20.90;73.30;;;;;;5076259;28;20182;-68
2023/07/01 03:20:22;;;;;;;1.20;0.43;;;20.70;76.30;;;;;;5074513;28;20276;-68
2023/07/01 03:22:54;;;;;;;0.50;0.40;;;20.90;77.30;;;;;;5075819;28;20641;-67
2023/07/01 03:25:21;;;;;;;0.50;0.50;;;20.90;73.60;;;;;;5076132;28;20172;-67
2023/07/01 03:27:49;;;;;;;0.30;0.30;;;20.50;73.40;;;;;;5075984;28;20176;-68
2023/07/01 03:30:18;;;;;;;0.80;0.70;;;20.50;75.20;;;;;;5075915;28;20174;-68
2023/07/01 03:32:48;;;;;;;0.60;0.60;;;20.60;76.10;;;;;;5075907;28;20546;-69
2023/07/01 03:35:16;;;;;;;0.57;0.30;;;20.90;76.50;;;;;;5075792;28;20194;-69
2023/07/01 03:37:45;;;;;;;1.70;0.30;;;20.90;70.50;;;;;;5075683;28;20223;-69
2023/07/01 03:40:13;;;;;;;0.40;0.40;;;20.70;71.30;;;;;;5075464;28;20176;-69
2023/07/01 03:42:41;;;;;;;0.30;0.30;;;20.50;74.10;;;;;;5076256;28;20187;-68
2023/07/01 03:45:11;;;;;;;0.50;0.50;;;20.60;74.90;;;;;;5074818;28;20710;-69
2023/07/01 03:47:45;;;;;;;0.60;0.60;;;20.70;75.50;;;;;;5075702;28;20183;-68
2023/07/01 03:50:14;;;;;;;1.30;0.33;;;20.70;77.50;;;;;;5075456;28;20179;-69
2023/07/01 03:52:42;;;;;;;0.60;0.40;;;20.80;74.70;;;;;;5075316;28;20172;-68
2023/07/01 03:55:11;;;;;;;0.37;0.37;;;20.40;73.10;;;;;;5075549;28;20200;-69
2023/07/01 03:57:38;;;;;;;0.30;0.30;;;20.50;73.00;;;;;;5075481;28;20549;-69
2023/07/01 04:00:08;;;;;;;0.40;0.40;;;20.50;75.30;;;;;;5073954;28;20221;-67
2023/07/01 04:02:38;;;;;;;0.80;0.60;;;20.70;73.20;;;;;;5074059;28;20516;-69
2023/07/01 04:05:10;;;;;;;0.30;0.30;;;20.80;72.20;;;;;;5075369;28;20536;-70
2023/07/01 04:07:47;;;;;;;0.30;0.30;;;20.60;74.80;;;;;;5075262;28;20520;-68
2023/07/01 04:10:16;;;;;;;2.10;0.30;;;20.60;74.50;;;;;;5075174;28;20664;-70
2023/07/01 04:12:44;;;;;;;0.30;0.30;;;20.70;75.40;;;;;;5074935;28;20171;-68
2023/07/01 04:15:12;;;;;;;5.87;0.57;;;20.80;78.90;;;;;;5075364;28;20285;-69
2023/07/01 04:17:42;;;;;;;0.30;0.30;;;21.10;76.20;;;;;;5074948;28;20545;-69
2023/07/01 04:20:11;;;;;;;0.30;0.30;;;21.00;71.30;;;;;;5074861;28;20350;-69
2023/07/01 04:22:39;;;;;;;0.50;0.50;;;21.00;75.20;;;;;;5075060;28;20519;-68
2023/07/01 04:25:08;;;;;;;0.40;0.40;;;20.90;73.60;;;;;;5074826;28;20259;-68
2023/07/01 04:27:36;;;;;;;0.30;0.30;;;20.70;73.30;;;;;;5074904;28;20722;-69
2023/07/01 04:30:07;;;;;;;1.27;0.50;;;20.60;75.20;;;;;;5074761;28;20175;-69
2023/07/01 04:32:35;;;;;;;0.40;0.40;;;20.70;73.40;;;;;;5074591;28;20195;-70
2023/07/01 04:35:03;;;;;;;0.40;0.40;;;20.50;74.90;;;;;;5074711;28;20583;-68
2023/07/01 04:37:31;;;;;;;0.40;0.40;;;20.20;74.20;;;;;;5074690;28;20176;-70
2023/07/01 04:39:58;;;;;;;0.40;0.40;;;20.00;72.90;;;;;;5074413;28;20180;-69
2023/07/01 04:42:25;;;;;;;0.50;0.40;;;20.00;73.90;;;;;;5074468;28;20269;-68
2023/07/01 04:44:55;;;;;;;0.33;0.33;;;19.90;74.40;;;;;;5074439;28;20183;-68
2023/07/01 04:47:24;;;;;;;1.80;0.40;;;19.90;76.30;;;;;;5074342;28;20186;-68
2023/07/01 04:49:52;;;;;;;0.53;0.40;;;20.00;77.10;;;;;;5074501;28;20180;-68
2023/07/01 04:52:24;;;;;;;0.40;0.40;;;20.00;76.10;;;;;;5074182;28;20184;-68
2023/07/01 04:54:52;;;;;;;0.30;0.30;;;20.10;76.10;;;;;;5074521;28;20202;-70
2023/07/01 04:57:19;;;;;;;0.97;0.83;;;20.00;76.00;;;;;;5073338;28;20173;-69
2023/07/01 04:59:47;;;;;;;0.40;0.40;;;19.80;78.30;;;;;;5074092;28;20177;-69
2023/07/01 05:02:14;;;;;;;2.33;0.50;;;19.70;76.80;;;;;;5074308;28;20529;-70
2023/07/01 05:04:41;;;;;;;0.80;0.30;;;19.90;79.10;;;;;;5074267;28;20175;-70
2023/07/01 05:07:09;;;;;;;0.30;0.30;;;20.10;78.50;;;;;;5073970;28;20179;-70
2023/07/01 05:09:36;;;;;;;0.87;0.60;;;20.10;75.50;;;;;;5073149;28;20179;-70
2023/07/01 05:12:04;;;;;;;0.40;0.40;;;20.30;75.00;;;;;;5072921;28;20671;-68
2023/07/01 05:14:31;;;;;;;0.40;0.40;;;20.30;74.40;;;;;;5072991;28;20187;-68
2023/07/01 05:16:59;;;;;;;0.40;0.40;;;20.20;72.60;;;;;;5071718;28;20205;-70
2023/07/01 05:19:26;;;;;;;0.57;0.37;;;20.10;73.70;;;;;;5072942;28;20235;-68
2023/07/01 05:21:54;;;;;;;0.30;0.30;;;19.90;73.00;;;;;;5073789;28;20284;-71
2023/07/01 05:24:22;;;;;;;0.30;0.30;;;19.60;74.60;;;;;;5073733;28;20181;-70
2023/07/01 05:26:50;;;;;;;0.30;0.30;;;19.60;76.10;;;;;;5073483;28;20188;-68
2023/07/01 05:29:21;;;;;;;0.33;0.30;;;19.50;77.40;;;;;;5072762;28;20185;-68
2023/07/01 05:31:49;;;;;;;0.30;0.30;;;19.30;79.00;;;;;;5053543;28;20180;-71
2023/07/01 05:34:17;;;;;;;0.57;0.40;;;19.10;81.60;;;;;;5060909;28;20235;-72
2023/07/01 05:36:45;;;;;;;0.40;0.40;;;18.80;84.20;;;;;;5073185;28;20243;-69
2023/07/01 05:39:13;;;;;;;0.33;0.30;;;18.50;86.30;;;;;;5073364;28;20580;-68
2023/07/01 05:41:41;;;;;;;0.40;0.40;;;18.30;90.40;;;;;;5073463;28;20249;-68
2023/07/01 05:44:10;;;;;;;1.90;0.43;;;18.10;92.00;;;;;;5073367;28;20168;-71
2023/07/01 05:46:39;;;;;;;0.90;0.50;;;17.90;93.20;;;;;;5072897;28;20237;-72
2023/07/01 05:49:08;;;;;;;0.40;0.40;;;17.80;95.10;;;;;;5072725;28;20176;-68
2023/07/01 05:51:37;;;;;;;0.50;0.50;;;17.70;97.60;;;;;;5073236;28;20657;-71
2023/07/01 05:54:04;;;;;;;1.00;0.57;;;17.60;97.90;;;;;;5072644;28;20640;-71
2023/07/01 05:59:53;;;;;;;0.40;0.40;;;17.40;96.80;;;;;;5072261;28;20334;-71
2023/07/01 06:02:21;;;;;;;1.00;0.60;;;17.30;98.20;;;;;;5072819;28;20716;-69
2023/07/01 06:04:48;;;;;;;0.93;0.83;;;17.20;99.20;;;;;;5072720;28;20225;-72
2023/07/01 06:07:15;;;;;;;0.60;0.60;;;17.20;99.90;;;;;;5072989;28;20164;-68
2023/07/01 06:09:49;;;;;;;0.40;0.40;;;17.10;99.90;;;;;;5072041;28;20253;-67
2023/07/01 06:12:17;;;;;;;0.53;0.50;;;17.00;99.90;;;;;;5072951;28;20167;-70
2023/07/01 06:14:44;;;;;;;0.40;0.40;;;16.90;99.90;;;;;;5072294;28;20183;-70
2023/07/01 06:17:12;;;;;;;1.50;0.60;;;16.90;99.90;;;;;;5072905;28;20668;-69
2023/07/01 06:19:39;;;;;;;0.80;0.80;;;16.80;99.90;;;;;;5072365;28;20238;-72
2023/07/01 06:22:06;;;;;;;0.57;0.57;;;16.80;99.90;;;;;;5072970;28;20175;-68
2023/07/01 06:24:34;;;;;;;0.63;0.60;;;16.70;99.90;;;;;;5072311;28;20176;-70
2023/07/01 06:27:01;;;;;;;1.70;0.40;;;16.60;99.90;;;;;;5072835;28;20664;-66
2023/07/01 06:29:28;;;;;;;0.40;0.40;;;16.50;99.90;;;;;;5072783;28;20171;-74
2023/07/01 06:31:55;;;;;;;0.80;0.40;;;16.40;99.90;;;;;;5072389;28;20199;-68
2023/07/01 06:34:23;;;;;;;0.83;0.50;;;16.30;99.90;;;;;;5072479;28;20229;-65
2023/07/01 06:36:50;;;;;;;5.93;1.73;;;16.20;99.90;;;;;;5072998;28;20219;-68
2023/07/01 06:39:17;;;;;;;2.77;1.83;;;16.10;99.90;;;;;;5072347;28;20537;-69
2023/07/01 06:41:45;;;;;;;1.07;0.77;;;16.00;99.90;;;;;;5072417;28;20299;-69
2023/07/01 06:44:13;;;;;;;3.37;0.70;;;16.00;99.90;;;;;;5072183;28;20180;-69
2023/07/01 06:46:41;;;;;;;2.20;0.60;;;16.00;99.90;;;;;;5053305;28;20214;-69
2023/07/01 06:49:08;;;;;;;0.50;0.50;;;16.00;99.90;;;;;;5070285;28;20184;-69
2023/07/01 06:51:35;;;;;;;0.50;0.50;;;15.90;99.90;;;;;;5069964;28;20279;-69
2023/07/01 06:54:03;;;;;;;1.00;0.70;;;15.70;99.90;;;;;;5069830;28;20195;-68
2023/07/01 06:56:30;;;;;;;1.77;1.30;;;15.70;99.90;;;;;;5070483;28;20990;-68
2023/07/01 06:58:57;;;;;;;3.23;1.87;;;15.50;99.90;;;;;;5070483;28;20260;-69
2023/07/01 07:01:25;;;;;;;3.20;2.17;;;15.50;99.90;;;;;;5071121;28;20293;-68
2023/07/01 07:03:52;;;;;;;6.60;4.00;;;15.50;99.90;;;;;;5071168;28;20188;-69
2023/07/01 07:06:19;;;;;;;6.17;4.03;;;15.30;99.90;;;;;;5071381;28;20798;-69
2023/07/01 07:08:47;;;;;;;2.23;1.50;;;15.20;99.90;;;;;;5051046;28;20182;-69
2023/07/01 07:11:14;;;;;;;1.27;1.00;;;15.20;99.90;;;;;;5079680;28;20187;-69
2023/07/01 07:13:41;;;;;;;1.13;0.80;;;15.20;99.90;;;;;;5070705;28;20189;-69
2023/07/01 07:16:09;;;;;;;0.67;0.60;;;15.10;99.90;;;;;;5070052;28;20218;-70
2023/07/01 07:18:36;;;;;;;1.10;0.70;;;15.10;99.90;;;;;;5069289;28;20223;-69
2023/07/01 07:21:04;;;;;;;0.97;0.67;;;15.10;99.90;;;;;;5071940;28;20653;-70
2023/07/01 07:23:31;;;;;;;0.70;0.70;;;15.00;99.90;;;;;;5074490;28;20184;-69
2023/07/01 07:25:58;;;;;;;1.10;0.90;;;14.90;99.90;;;;;;5074494;28;20241;-69
2023/07/01 07:28:26;;;;;;;1.30;1.10;;;14.90;99.90;;;;;;5074810;28;20521;-71
2023/07/01 07:30:53;;;;;;;1.00;0.90;;;14.80;99.90;;;;;;5074431;28;20249;-70
2023/07/01 07:33:20;;;;;;;1.20;0.90;;;14.70;99.90;;;;;;5074241;28;20184;-69
2023/07/01 07:35:48;;;;;;;2.23;1.10;;;14.60;99.90;;;;;;5074698;28;20745;-71
2023/07/01 07:38:15;;;;;;;5.60;1.20;;;14.60;99.90;;;;;;5074634;28;20176;-71
2023/07/01 07:40:43;;;;;;;1.30;1.03;;;14.50;99.90;;;;;;5073531;28;20814;-72
2023/07/01 07:43:11;;;;;;;2.23;0.97;;;14.50;99.90;;;;;;5076176;28;20195;-70
2023/07/01 07:45:39;;;;;;;1.17;0.77;;;14.40;99.90;;;;;;5074432;28;20187;-71
2023/07/01 07:48:10;;;;;;;1.03;0.97;;;14.30;99.90;;;;;;5074056;28;20224;-71
2023/07/01 07:50:37;;;;;;;2.03;1.00;;;14.30;99.90;;;;;;5074378;28;20183;-70
2023/07/01 07:53:04;;;;;;;1.30;0.80;;;14.30;99.90;;;;;;5074378;28;20194;-72
2023/07/01 07:55:34;;;;;;;1.07;0.97;;;14.30;99.90;;;;;;5073923;28;20702;-71
2023/07/01 07:58:02;;;;;;;1.03;0.97;;;14.30;99.90;;;;;;5074210;28;20179;-70
2023/07/01 08:00:30;;;;;;;1.27;1.00;;;14.20;99.90;;;;;;5074039;28;20558;-70
2023/07/01 08:02:58;;;;;;;0.83;0.80;;;14.20;99.90;;;;;;5073342;28;20189;-72
2023/07/01 08:05:27;;;;;;;0.90;0.90;;;14.20;99.90;;;;;;5073191;28;20323;-72
2023/07/01 08:07:55;;;;;;;2.07;0.90;;;14.10;99.90;;;;;;5073726;28;20186;-70
2023/07/01 08:10:23;;;;;;;2.00;0.80;;;14.00;99.90;;;;;;5073276;28;20190;-70
2023/07/01 08:12:51;;;;;;;0.80;0.80;;;14.00;99.90;;;;;;5074011;28;20179;-70
2023/07/01 08:15:19;;;;;;;1.33;0.80;;;13.90;99.90;;;;;;5073161;28;20263;-70
2023/07/01 08:17:46;;;;;;;0.80;0.77;;;13.90;99.90;;;;;;5073506;28;20265;-72
2023/07/01 08:20:18;;;;;;;1.23;0.70;;;13.90;99.90;;;;;;5073634;28;20226;-71
2023/07/01 08:22:46;;;;;;;1.07;0.90;;;13.80;99.90;;;;;;5073828;28;20171;-71
2023/07/01 08:25:13;;;;;;;0.90;0.90;;;13.60;99.90;;;;;;5072619;28;20173;-69
2023/07/01 08:27:41;;;;;;;1.63;1.10;;;13.50;99.90;;;;;;5073417;28;20194;-70
2023/07/01 08:30:09;;;;;;;2.80;1.10;;;13.50;99.90;;;;;;5073581;28;20186;-69
2023/07/01 08:32:37;;;;;;;1.33;1.10;;;13.50;99.90;;;;;;5072792;28;20201;-70
2023/07/01 08:35:05;;;;;;;1.00;0.90;;;13.40;99.90;;;;;;5073224;28;20205;-68
2023/07/01 08:37:34;;;;;;;4.07;1.30;;;13.40;99.90;;;;;;5073359;28;20175;-72
2023/07/01 08:40:02;;;;;;;1.03;0.90;;;13.50;99.90;;;;;;5074954;28;20179;-69
2023/07/01 08:42:43;;;;;;;1.40;1.20;;;13.50;99.90;;;;;;5073062;28;20189;-71
2023/07/01 08:45:12;;;;;;;2.30;1.77;;;13.50;99.90;;;;;;5073435;28;20180;-71
2023/07/01 08:47:40;;;;;;;1.67;1.37;;;13.50;99.90;;;;;;5072960;28;20257;-70
2023/07/01 08:50:09;;;;;;;2.57;1.70;;;13.40;99.90;;;;;;5073002;28;20248;-70
2023/07/01 08:52:45;;;;;;;1.47;1.37;;;13.40;99.90;;;;;;5073242;28;20169;-70
2023/07/01 08:55:13;;;;;;;2.60;2.17;;;13.30;99.90;;;;;;5072690;28;20259;-72
2023/07/01 08:57:42;;;;;;;4.10;2.77;;;13.20;99.90;;;;;;5072925;28;20186;-70
2023/07/01 09:00:14;;;;;;;3.83;2.43;;;13.10;99.90;;;;;;5072969;28;20214;-71
2023/07/01 09:02:44;;;;;;;5.83;3.23;;;13.00;99.90;;;;;;5072656;28;20182;-69
2023/07/01 09:05:11;;;;;;;3.97;3.10;;;13.00;99.90;;;;;;5072897;28;20181;-69
2023/07/01 09:07:41;;;;;;;2.03;1.47;;;13.00;99.90;;;;;;5072739;28;20643;-69
2023/07/01 09:10:11;;;;;;;2.80;1.80;;;12.90;99.90;;;;;;5072157;28;20189;-70
2023/07/01 09:12:39;;;;;;;2.30;1.67;;;13.00;99.90;;;;;;5072013;28;20620;-71
2023/07/01 09:15:08;;;;;;;6.70;1.70;;;12.90;99.90;;;;;;5072635;28;20360;-73
2023/07/01 09:17:38;;;;;;;2.13;1.40;;;12.80;99.90;;;;;;5073225;28;20177;-71
2023/07/01 09:20:08;;;;;;;1.93;1.50;;;12.70;99.90;;;;;;5072760;28;20286;-71
2023/07/01 09:22:38;;;;;;;2.60;1.80;;;12.60;99.90;;;;;;5072998;28;20273;-70
2023/07/01 09:25:07;;;;;;;2.23;1.83;;;12.60;99.90;;;;;;5072741;28;20186;-71
2023/07/01 09:27:48;;;;;;;2.10;1.90;;;12.50;99.90;;;;;;5072534;28;20220;-71
2023/07/01 09:30:24;;;;;;;3.70;1.67;;;12.50;99.90;;;;;;5073310;28;20180;-70
2023/07/01 09:33:00;;;;;;;1.80;1.60;;;12.50;99.90;;;;;;5072783;28;20184;-70
2023/07/01 09:35:42;;;;;;;2.20;1.70;;;12.40;99.90;;;;;;5072829;28;20205;-70
2023/07/01 09:38:10;;;;;;;3.30;1.97;;;12.40;99.90;;;;;;5065127;28;20206;-70
2023/07/01 09:40:38;;;;;;;2.53;1.70;;;12.40;99.90;;;;;;5072078;28;20598;-70
2023/07/01 09:43:06;;;;;;;2.20;1.60;;;12.30;99.90;;;;;;5072564;28;20207;-70
2023/07/01 09:45:33;;;;;;;2.83;2.07;;;12.20;99.90;;;;;;5070470;28;20181;-69
2023/07/01 09:48:11;;;;;;;2.67;2.23;;;12.20;99.90;;;;;;5071386;28;20173;-70
2023/07/01 09:50:39;;;;;;;5.00;2.60;;;12.20;99.90;;;;;;5071601;28;20175;-71
2023/07/01 09:53:20;;;;;;;3.20;1.80;;;12.20;99.90;;;;;;5071225;28;20177;-69
2023/07/01 09:55:49;;;;;;;1.63;1.40;;;12.10;99.90;;;;;;5071544;28;20353;-69
2023/07/01 09:58:17;;;;;;;2.73;1.53;;;12.00;99.90;;;;;;5071291;28;20514;-69
2023/07/01 10:00:46;;;;;;;4.43;2.20;;;12.00;99.90;;;;;;5070714;28;20663;-69
2023/07/01 10:03:15;;;;;;;3.03;2.17;;;12.00;99.90;;;;;;5071496;28;20253;-70
2023/07/01 10:05:45;;;;;;;3.23;2.50;;;11.90;99.90;;;;;;5070970;28;20578;-69
2023/07/01 10:08:12;;;;;;;3.20;2.30;;;11.80;99.90;;;;;;5070848;28;20523;-69
2023/07/01 10:10:40;;;;;;;3.47;2.63;;;11.70;99.90;;;;;;5071254;28;20176;-70
2023/07/01 10:13:08;;;;;;;2.47;2.20;;;11.60;99.90;;;;;;5071250;28;20637;-70
2023/07/01 10:15:39;;;;;;;3.60;2.20;;;11.50;99.90;;;;;;5070818;28;20210;-71
2023/07/01 10:18:23;;;;;;;2.17;1.80;;;11.50;99.90;;;;;;5072265;28;20258;-69
2023/07/01 10:20:51;;;;;;;3.33;2.00;;;11.40;99.90;;;;;;5072556;28;20265;-69
2023/07/01 10:23:20;;;;;;;3.37;2.30;;;11.30;99.90;;;;;;5072825;28;20656;-70
2023/07/01 10:25:48;;;;;;;3.80;2.43;;;11.20;99.90;;;;;;5072485;28;20231;-70
2023/07/01 10:28:16;;;;;;;3.07;2.27;;;11.20;99.90;;;;;;5072320;28;20274;-69
2023/07/01 10:30:43;;;;;;;3.87;2.47;;;11.10;99.90;;;;;;5072456;28;20656;-70
2023/07/01 10:33:35;;;;;;;4.10;2.50;;;11.10;99.90;;;;;;5072213;28;20174;-68
2023/07/01 10:36:10;;;;;;;5.37;2.27;;;10.90;99.90;;;;;;5065087;28;20226;-69
2023/07/01 10:38:38;;;;;;;3.63;2.50;;;10.90;99.90;;;;;;5080070;28;20198;-68
2023/07/01 10:41:07;;;;;;;4.00;2.70;;;10.80;99.90;;;;;;5078960;28;20656;-69
2023/07/01 10:43:38;;;;;;;2.90;2.60;;;10.80;99.90;;;;;;5072411;28;20180;-70
2023/07/01 10:46:12;;;;;;;6.10;3.70;;;10.70;99.90;;;;;;5072061;28;20210;-69
2023/07/01 10:48:44;;;;;;;4.23;3.00;;;10.60;99.90;;;;;;5071976;28;20174;-69
2023/07/01 10:51:13;;;;;;;4.43;2.70;;;10.60;99.90;;;;;;5072560;28;20234;-70
2023/07/01 10:53:59;;;;;;;3.93;2.97;;;10.60;99.90;;;;;;5071854;28;20180;-70
2023/07/01 10:56:32;;;;;;;3.93;2.87;;;10.50;99.90;;;;;;5076237;28;20219;-70
2023/07/01 10:59:21;;;;;;;3.80;3.00;;;10.40;99.90;;;;;;5075934;28;20306;-70
2023/07/01 11:01:59;;;;;;;7.90;3.20;;;10.40;99.90;;;;;;5075730;28;20645;-71
2023/07/01 11:04:53;;;;;;;5.27;3.37;;;10.40;99.90;;;;;;5075756;28;20727;-70
2023/07/01 11:07:28;;;;;;;4.23;2.93;;;10.50;99.90;;;;;;5075392;28;20663;-71
2023/07/01 11:09:56;;;;;;;5.73;3.63;;;10.60;99.90;;;;;;5075181;28;20237;-69
2023/07/01 11:12:24;;;;;;;7.13;4.00;;;10.70;99.90;;;;;;5061398;28;20182;-71
2023/07/01 11:14:54;;;;;;;3.60;2.80;;;10.70;99.90;;;;;;5067977;28;20177;-70
2023/07/01 11:17:23;;;;;;;4.70;3.00;;;10.60;99.90;;;;;;5074205;28;20273;-70
2023/07/01 11:19:58;;;;;;;3.90;3.10;;;10.60;99.90;;;;;;5073643;28;20237;-70
2023/07/01 11:22:26;;;;;;;4.60;2.63;;;10.50;99.90;;;;;;5073648;28;20184;-72
2023/07/01 11:25:03;;;;;;;3.23;2.33;;;10.60;99.90;;;;;;5072469;28;20182;-70
2023/07/01 11:27:31;;;;;;;4.43;2.63;;;10.70;99.90;;;;;;5072731;28;20214;-69
2023/07/01 11:29:59;;;;;;;4.87;2.77;;;10.70;99.90;;;;;;5073873;28;20239;-70
2023/07/01 11:32:26;;;;;;;3.13;2.10;;;10.60;99.90;;;;;;5073442;28;20684;-69
2023/07/01 11:34:59;;;;;;;2.90;2.43;;;10.70;99.90;;;;;;5073806;28;20172;-69
2023/07/01 11:37:28;;;;;;;2.60;2.00;;;10.80;99.90;;;;;;5073690;28;20186;-69
2023/07/01 11:39:56;;;;;;;3.33;2.43;;;10.90;99.90;;;;;;5073795;28;20219;-70
2023/07/01 11:42:26;;;;;;;2.50;2.07;;;11.00;99.90;;;;;;5073937;28;20616;-70
2023/07/01 11:44:54;;;;;;;4.00;2.10;;;11.10;99.90;;;;;;5073548;28;20224;-70
2023/07/01 11:47:22;;;;;;;3.20;2.67;;;11.20;99.90;;;;;;5073667;28;20188;-69
2023/07/01 11:49:50;;;;;;;4.80;2.93;;;11.30;99.90;;;;;;5072245;28;20922;-69
2023/07/01 11:52:25;;;;;;;2.30;2.10;;;11.30;99.90;;;;;;5073416;28;20184;-69
2023/07/01 11:54:54;;;;;;;2.93;2.30;;;11.40;99.90;;;;;;5073859;28;20218;-69
2023/07/01 11:57:23;;;;;;;2.67;2.00;;;11.50;99.90;;;;;;5073202;28;20190;-70
2023/07/01 11:59:58;;;;;;;3.70;2.50;;;11.50;99.90;;;;;;5073028;28;20736;-70
2023/07/01 12:02:34;;;;;;;4.23;2.90;;;11.40;99.90;;;;;;5073701;28;20204;-70
2023/07/01 12:05:03;;;;;;;3.07;2.17;;;11.50;99.90;;;;;;5073324;28;20177;-70
2023/07/01 12:07:31;;;;;;;3.50;2.47;;;11.50;99.90;;;;;;5072448;28;20188;-69
2023/07/01 12:10:20;;;;;;;3.37;2.23;;;11.60;99.90;;;;;;5072032;28;20185;-71
2023/07/01 12:12:51;;;;;;;3.47;2.20;;;11.60;99.90;;;;;;5073183;28;20267;-70
2023/07/01 12:15:21;;;;;;;5.23;2.00;;;11.60;99.90;;;;;;5074596;28;20615;-72
2023/07/01 12:17:51;;;;;;;2.20;1.90;;;11.70;99.90;;;;;;5074560;28;20652;-70
2023/07/01 12:20:19;;;;;;;3.20;2.30;;;11.70;99.90;;;;;;5074031;28;20751;-71
2023/07/01 12:22:47;;;;;;;3.27;2.53;;;11.60;99.90;;;;;;5074546;28;20593;-71
2023/07/01 12:25:15;;;;;;;2.87;1.70;;;11.60;99.90;;;;;;5073470;28;20252;-70
2023/07/01 12:27:43;;;;;;;3.30;2.33;;;11.60;99.90;;;;;;5074121;28;20186;-70
2023/07/01 12:30:11;;;;;;;2.90;1.70;;;11.50;99.90;;;;;;5074150;28;20182;-70
2023/07/01 12:32:40;;;;;;;2.20;1.60;;;11.60;99.90;;;;;;5074137;28;20651;-71
2023/07/01 12:35:08;;;;;;;2.57;1.67;;;11.60;99.90;;;;;;5073257;28;20219;-69
2023/07/01 12:37:39;;;;;;;1.63;1.30;;;11.70;99.90;;;;;;5074162;28;20177;-69
2023/07/01 12:40:08;;;;;;;2.73;1.50;;;11.70;99.90;;;;;;5073600;28;20175;-71
2023/07/01 12:42:36;;;;;;;4.53;1.80;;;11.70;99.90;;;;;;5073774;28;20242;-70
2023/07/01 12:45:06;;;;;;;1.53;1.43;;;11.70;99.90;;;;;;5071712;28;20182;-72
2023/07/01 12:47:33;;;;;;;2.70;1.47;;;11.70;99.90;;;;;;5073526;28;20181;-71
2023/07/01 12:50:01;;;;;;;2.63;1.43;;;11.70;99.90;;;;;;5073894;28;20173;-71
2023/07/01 12:52:33;;;;;;;2.40;1.30;;;11.80;99.90;;;;;;5072520;28;20183;-71
2023/07/01 12:55:01;;;;;;;1.87;1.60;;;11.80;99.90;;;;;;5072987;28;20189;-70
2023/07/01 12:57:29;;;;;;;3.47;1.27;;;11.80;99.90;;;;;;5053909;28;20187;-72
2023/07/01 12:59:57;;;;;;;2.70;1.20;;;11.80;99.90;;;;;;5067515;28;20177;-71
2023/07/01 13:02:25;;;;;;;1.10;1.03;;;11.80;99.90;;;;;;5073114;28;20181;-71